Hlavní strana
METAR-TAF:

METAR-TAF

Letiště :

Kemi, Finsko

zeměpisná šířka: 65-47N, zeměpisná délka: 024-35E, výška: 15 m

Aktuální stav počasí

Zpráva byla vytvořena před 41 minutami, v 15:50 UTC
Západojihozápadní vítr 9 kt
Teplota 3°C
Vlhkost vzduchu 81%
Tlak 1011 hPa
Viditelnost 10 km a více
Žádná oblačnost pod 1500 m, nevyskytují se cumulonimby.

METAR: EFKE 281550Z AUTO 25009KT CAVOK 03/00 Q1011

Čas: 18:31 (16:31 UTC)


TAF: chybějící

Stav a předpovědi počasí z více než 4 000 letišť (zprávy METAR a TAF).

Červené a žluté tečky na mapě představují dostupné meteorologické stanice.

Když kurzor umístíte na tečku, zobrazí se název stanice.

Pak kliknutím zobrazíte stav a předpověď počasí.

Chcete-li změnit mapu, kliknutím na zelené tlačítko se znaménkem +mapu přiblížíte, kliknutím na zelené tlačítko se znaménkem – mapu oddálíte a kliknutím na zelené šipky přejdete na sousední mapy.


METAR-TAF: